sensor_id;sensor_type;location;lat;lon;timestamp;P1;durP1;ratioP1;P2;durP2;ratioP2
11348;SDS011;5729;43.570;27.826;2023-08-01T00:01:53;7.97;;;5.80;;
11348;SDS011;5729;43.570;27.826;2023-08-01T00:04:19;8.10;;;6.05;;
11348;SDS011;5729;43.570;27.826;2023-08-01T00:06:44;6.93;;;6.22;;
11348;SDS011;5729;43.570;27.826;2023-08-01T00:09:10;7.22;;;6.53;;
11348;SDS011;5729;43.570;27.826;2023-08-01T00:11:35;7.38;;;5.82;;
11348;SDS011;5729;43.570;27.826;2023-08-01T00:14:00;7.55;;;6.35;;
11348;SDS011;5729;43.570;27.826;2023-08-01T00:16:26;9.20;;;6.88;;
11348;SDS011;5729;43.570;27.826;2023-08-01T00:18:52;8.57;;;6.53;;
11348;SDS011;5729;43.570;27.826;2023-08-01T00:21:17;7.10;;;6.40;;
11348;SDS011;5729;43.570;27.826;2023-08-01T00:23:42;6.78;;;6.10;;
11348;SDS011;5729;43.570;27.826;2023-08-01T00:26:08;6.75;;;6.00;;
11348;SDS011;5729;43.570;27.826;2023-08-01T00:28:33;7.30;;;6.55;;
11348;SDS011;5729;43.570;27.826;2023-08-01T00:31:06;6.63;;;6.00;;
11348;SDS011;5729;43.570;27.826;2023-08-01T00:33:34;15.00;;;6.53;;
11348;SDS011;5729;43.570;27.826;2023-08-01T00:36:00;7.45;;;6.07;;
11348;SDS011;5729;43.570;27.826;2023-08-01T00:38:26;7.55;;;6.13;;
11348;SDS011;5729;43.570;27.826;2023-08-01T00:40:52;8.43;;;6.40;;
11348;SDS011;5729;43.570;27.826;2023-08-01T00:43:17;6.88;;;6.18;;
11348;SDS011;5729;43.570;27.826;2023-08-01T00:45:43;8.55;;;6.00;;
11348;SDS011;5729;43.570;27.826;2023-08-01T00:48:10;8.38;;;6.50;;
11348;SDS011;5729;43.570;27.826;2023-08-01T00:50:35;11.40;;;6.40;;
11348;SDS011;5729;43.570;27.826;2023-08-01T00:53:01;8.13;;;6.13;;
11348;SDS011;5729;43.570;27.826;2023-08-01T00:55:27;7.88;;;5.90;;
11348;SDS011;5729;43.570;27.826;2023-08-01T00:57:55;7.18;;;5.90;;
11348;SDS011;5729;43.570;27.826;2023-08-01T01:00:21;7.25;;;6.40;;
11348;SDS011;5729;43.570;27.826;2023-08-01T01:02:46;7.80;;;6.72;;
11348;SDS011;5729;43.570;27.826;2023-08-01T01:05:12;8.05;;;6.75;;
11348;SDS011;5729;43.570;27.826;2023-08-01T01:07:38;6.22;;;5.63;;
11348;SDS011;5729;43.570;27.826;2023-08-01T01:10:05;6.93;;;6.18;;
11348;SDS011;5729;43.570;27.826;2023-08-01T01:12:31;13.23;;;7.03;;
11348;SDS011;5729;43.570;27.826;2023-08-01T01:14:56;10.43;;;7.75;;
11348;SDS011;5729;43.570;27.826;2023-08-01T01:17:21;11.32;;;6.80;;
11348;SDS011;5729;43.570;27.826;2023-08-01T01:19:47;14.23;;;7.65;;
11348;SDS011;5729;43.570;27.826;2023-08-01T01:22:12;15.55;;;8.23;;
11348;SDS011;5729;43.570;27.826;2023-08-01T01:24:39;12.02;;;7.70;;
11348;SDS011;5729;43.570;27.826;2023-08-01T01:27:06;12.75;;;7.57;;
11348;SDS011;5729;43.570;27.826;2023-08-01T01:29:33;11.45;;;7.45;;
11348;SDS011;5729;43.570;27.826;2023-08-01T01:32:00;9.30;;;7.30;;
11348;SDS011;5729;43.570;27.826;2023-08-01T01:34:26;10.27;;;6.88;;
11348;SDS011;5729;43.570;27.826;2023-08-01T01:36:53;12.57;;;7.03;;
11348;SDS011;5729;43.570;27.826;2023-08-01T01:39:18;9.00;;;7.20;;
11348;SDS011;5729;43.570;27.826;2023-08-01T01:41:44;12.90;;;7.30;;
11348;SDS011;5729;43.570;27.826;2023-08-01T01:44:09;8.48;;;7.10;;
11348;SDS011;5729;43.570;27.826;2023-08-01T01:46:34;13.68;;;7.10;;
11348;SDS011;5729;43.570;27.826;2023-08-01T01:49:00;8.60;;;6.75;;
11348;SDS011;5729;43.570;27.826;2023-08-01T01:51:26;7.65;;;6.65;;
11348;SDS011;5729;43.570;27.826;2023-08-01T01:53:52;7.82;;;6.80;;
11348;SDS011;5729;43.570;27.826;2023-08-01T01:56:17;7.95;;;7.10;;
11348;SDS011;5729;43.570;27.826;2023-08-01T01:58:43;7.75;;;6.70;;
11348;SDS011;5729;43.570;27.826;2023-08-01T02:01:08;7.20;;;6.50;;
11348;SDS011;5729;43.570;27.826;2023-08-01T02:03:34;9.15;;;6.47;;
11348;SDS011;5729;43.570;27.826;2023-08-01T02:06:00;8.73;;;6.55;;
11348;SDS011;5729;43.570;27.826;2023-08-01T02:08:28;8.13;;;6.80;;
11348;SDS011;5729;43.570;27.826;2023-08-01T02:10:53;7.20;;;6.50;;
11348;SDS011;5729;43.570;27.826;2023-08-01T02:13:20;7.75;;;6.95;;
11348;SDS011;5729;43.570;27.826;2023-08-01T02:15:45;8.32;;;7.07;;
11348;SDS011;5729;43.570;27.826;2023-08-01T02:18:11;8.80;;;7.07;;
11348;SDS011;5729;43.570;27.826;2023-08-01T02:20:36;10.15;;;7.40;;
11348;SDS011;5729;43.570;27.826;2023-08-01T02:23:03;8.25;;;7.18;;
11348;SDS011;5729;43.570;27.826;2023-08-01T02:25:28;9.15;;;7.00;;
11348;SDS011;5729;43.570;27.826;2023-08-01T02:27:53;7.10;;;6.38;;
11348;SDS011;5729;43.570;27.826;2023-08-01T02:30:19;7.07;;;6.28;;
11348;SDS011;5729;43.570;27.826;2023-08-01T02:32:44;9.13;;;7.13;;
11348;SDS011;5729;43.570;27.826;2023-08-01T02:35:10;8.50;;;7.68;;
11348;SDS011;5729;43.570;27.826;2023-08-01T02:37:36;9.93;;;7.22;;
11348;SDS011;5729;43.570;27.826;2023-08-01T02:40:02;14.15;;;7.30;;
11348;SDS011;5729;43.570;27.826;2023-08-01T02:42:32;11.15;;;6.82;;
11348;SDS011;5729;43.570;27.826;2023-08-01T02:44:57;9.05;;;7.20;;
11348;SDS011;5729;43.570;27.826;2023-08-01T02:47:23;8.25;;;7.18;;
11348;SDS011;5729;43.570;27.826;2023-08-01T02:49:48;9.18;;;6.72;;
11348;SDS011;5729;43.570;27.826;2023-08-01T02:52:14;8.60;;;7.15;;
11348;SDS011;5729;43.570;27.826;2023-08-01T02:54:39;9.00;;;6.72;;
11348;SDS011;5729;43.570;27.826;2023-08-01T02:57:05;10.77;;;7.63;;
11348;SDS011;5729;43.570;27.826;2023-08-01T02:59:31;9.65;;;6.95;;
11348;SDS011;5729;43.570;27.826;2023-08-01T03:01:58;13.43;;;7.63;;
11348;SDS011;5729;43.570;27.826;2023-08-01T03:04:24;10.90;;;8.27;;
11348;SDS011;5729;43.570;27.826;2023-08-01T03:06:50;8.52;;;7.68;;
11348;SDS011;5729;43.570;27.826;2023-08-01T03:09:15;11.27;;;7.57;;
11348;SDS011;5729;43.570;27.826;2023-08-01T03:11:41;9.43;;;7.50;;
11348;SDS011;5729;43.570;27.826;2023-08-01T03:14:06;9.40;;;7.22;;
11348;SDS011;5729;43.570;27.826;2023-08-01T03:16:32;8.75;;;7.63;;
11348;SDS011;5729;43.570;27.826;2023-08-01T03:18:58;9.60;;;8.70;;
11348;SDS011;5729;43.570;27.826;2023-08-01T03:21:29;11.73;;;8.05;;
11348;SDS011;5729;43.570;27.826;2023-08-01T03:23:56;11.10;;;8.35;;
11348;SDS011;5729;43.570;27.826;2023-08-01T03:26:22;10.13;;;7.82;;
11348;SDS011;5729;43.570;27.826;2023-08-01T03:28:47;9.68;;;8.15;;
11348;SDS011;5729;43.570;27.826;2023-08-01T03:31:13;8.75;;;7.35;;
11348;SDS011;5729;43.570;27.826;2023-08-01T03:33:38;9.93;;;7.55;;
11348;SDS011;5729;43.570;27.826;2023-08-01T03:36:04;9.10;;;8.20;;
11348;SDS011;5729;43.570;27.826;2023-08-01T03:38:30;8.82;;;7.53;;
11348;SDS011;5729;43.570;27.826;2023-08-01T03:40:55;9.48;;;8.32;;
11348;SDS011;5729;43.570;27.826;2023-08-01T03:43:21;12.63;;;8.75;;
11348;SDS011;5729;43.570;27.826;2023-08-01T03:45:48;9.00;;;8.15;;
11348;SDS011;5729;43.570;27.826;2023-08-01T03:48:14;11.35;;;8.25;;
11348;SDS011;5729;43.570;27.826;2023-08-01T03:50:40;8.38;;;7.55;;
11348;SDS011;5729;43.570;27.826;2023-08-01T03:53:05;10.52;;;8.45;;
11348;SDS011;5729;43.570;27.826;2023-08-01T03:55:30;12.25;;;9.18;;
11348;SDS011;5729;43.570;27.826;2023-08-01T03:57:56;10.18;;;8.80;;
11348;SDS011;5729;43.570;27.826;2023-08-01T04:00:21;9.68;;;8.57;;
11348;SDS011;5729;43.570;27.826;2023-08-01T04:02:47;9.05;;;8.02;;
11348;SDS011;5729;43.570;27.826;2023-08-01T04:05:12;13.30;;;9.05;;
11348;SDS011;5729;43.570;27.826;2023-08-01T04:07:38;10.02;;;8.55;;
11348;SDS011;5729;43.570;27.826;2023-08-01T04:10:04;10.45;;;8.68;;
11348;SDS011;5729;43.570;27.826;2023-08-01T04:12:31;9.15;;;8.32;;
11348;SDS011;5729;43.570;27.826;2023-08-01T04:14:57;9.10;;;7.90;;
11348;SDS011;5729;43.570;27.826;2023-08-01T04:17:23;8.57;;;7.63;;
11348;SDS011;5729;43.570;27.826;2023-08-01T04:19:48;9.23;;;8.07;;
11348;SDS011;5729;43.570;27.826;2023-08-01T04:22:14;8.38;;;7.43;;
11348;SDS011;5729;43.570;27.826;2023-08-01T04:24:39;13.57;;;8.25;;
11348;SDS011;5729;43.570;27.826;2023-08-01T04:27:05;8.95;;;8.07;;
11348;SDS011;5729;43.570;27.826;2023-08-01T04:29:30;8.75;;;7.85;;
11348;SDS011;5729;43.570;27.826;2023-08-01T04:31:57;8.82;;;7.57;;
11348;SDS011;5729;43.570;27.826;2023-08-01T04:34:22;11.60;;;7.88;;
11348;SDS011;5729;43.570;27.826;2023-08-01T04:36:48;8.02;;;7.32;;
11348;SDS011;5729;43.570;27.826;2023-08-01T04:39:13;9.65;;;8.15;;
11348;SDS011;5729;43.570;27.826;2023-08-01T04:41:39;10.93;;;8.20;;
11348;SDS011;5729;43.570;27.826;2023-08-01T04:44:04;8.63;;;7.68;;
11348;SDS011;5729;43.570;27.826;2023-08-01T04:46:30;8.90;;;8.10;;
11348;SDS011;5729;43.570;27.826;2023-08-01T04:48:55;13.27;;;8.45;;
11348;SDS011;5729;43.570;27.826;2023-08-01T04:51:21;11.10;;;9.10;;
11348;SDS011;5729;43.570;27.826;2023-08-01T04:53:46;9.90;;;8.63;;
11348;SDS011;5729;43.570;27.826;2023-08-01T04:56:11;12.00;;;8.90;;
11348;SDS011;5729;43.570;27.826;2023-08-01T04:58:37;12.30;;;8.25;;
11348;SDS011;5729;43.570;27.826;2023-08-01T05:01:02;12.35;;;8.73;;
11348;SDS011;5729;43.570;27.826;2023-08-01T05:03:29;9.27;;;8.38;;
11348;SDS011;5729;43.570;27.826;2023-08-01T05:05:54;12.00;;;8.38;;
11348;SDS011;5729;43.570;27.826;2023-08-01T05:08:19;9.80;;;8.43;;
11348;SDS011;5729;43.570;27.826;2023-08-01T05:10:45;10.95;;;8.73;;
11348;SDS011;5729;43.570;27.826;2023-08-01T05:13:10;9.32;;;8.15;;
11348;SDS011;5729;43.570;27.826;2023-08-01T05:15:36;9.18;;;8.32;;
11348;SDS011;5729;43.570;27.826;2023-08-01T05:18:01;11.45;;;8.70;;
11348;SDS011;5729;43.570;27.826;2023-08-01T05:20:27;14.10;;;9.10;;
11348;SDS011;5729;43.570;27.826;2023-08-01T05:22:56;10.75;;;9.25;;
11348;SDS011;5729;43.570;27.826;2023-08-01T05:25:22;9.70;;;8.68;;
11348;SDS011;5729;43.570;27.826;2023-08-01T05:27:48;10.20;;;8.90;;
11348;SDS011;5729;43.570;27.826;2023-08-01T05:30:13;10.32;;;9.32;;
11348;SDS011;5729;43.570;27.826;2023-08-01T05:32:39;8.82;;;7.93;;
11348;SDS011;5729;43.570;27.826;2023-08-01T05:35:05;9.65;;;8.68;;
11348;SDS011;5729;43.570;27.826;2023-08-01T05:37:31;10.25;;;9.10;;
11348;SDS011;5729;43.570;27.826;2023-08-01T05:39:57;11.85;;;8.60;;
11348;SDS011;5729;43.570;27.826;2023-08-01T05:42:22;10.30;;;9.30;;
11348;SDS011;5729;43.570;27.826;2023-08-01T05:44:48;10.20;;;9.10;;
11348;SDS011;5729;43.570;27.826;2023-08-01T05:47:13;10.27;;;7.72;;
11348;SDS011;5729;43.570;27.826;2023-08-01T05:49:39;9.18;;;8.27;;
11348;SDS011;5729;43.570;27.826;2023-08-01T05:52:06;9.95;;;8.95;;
11348;SDS011;5729;43.570;27.826;2023-08-01T05:54:32;13.23;;;8.18;;
11348;SDS011;5729;43.570;27.826;2023-08-01T05:56:58;9.90;;;8.10;;
11348;SDS011;5729;43.570;27.826;2023-08-01T05:59:23;7.88;;;5.97;;
11348;SDS011;5729;43.570;27.826;2023-08-01T06:01:49;7.20;;;5.60;;
11348;SDS011;5729;43.570;27.826;2023-08-01T06:04:14;9.23;;;5.63;;
11348;SDS011;5729;43.570;27.826;2023-08-01T06:06:40;6.45;;;5.78;;
11348;SDS011;5729;43.570;27.826;2023-08-01T06:09:05;8.05;;;6.32;;
11348;SDS011;5729;43.570;27.826;2023-08-01T06:11:31;13.85;;;6.40;;
11348;SDS011;5729;43.570;27.826;2023-08-01T06:13:58;6.57;;;4.60;;
11348;SDS011;5729;43.570;27.826;2023-08-01T06:16:23;8.20;;;5.22;;
11348;SDS011;5729;43.570;27.826;2023-08-01T06:18:49;5.40;;;4.30;;
11348;SDS011;5729;43.570;27.826;2023-08-01T06:21:14;9.40;;;4.95;;
11348;SDS011;5729;43.570;27.826;2023-08-01T06:23:40;7.13;;;5.05;;
11348;SDS011;5729;43.570;27.826;2023-08-01T06:26:05;7.25;;;5.40;;
11348;SDS011;5729;43.570;27.826;2023-08-01T06:28:31;6.25;;;5.35;;
11348;SDS011;5729;43.570;27.826;2023-08-01T06:30:56;4.72;;;4.25;;
11348;SDS011;5729;43.570;27.826;2023-08-01T06:33:21;5.60;;;5.10;;
11348;SDS011;5729;43.570;27.826;2023-08-01T06:35:47;5.80;;;5.18;;
11348;SDS011;5729;43.570;27.826;2023-08-01T06:38:12;5.50;;;5.00;;
11348;SDS011;5729;43.570;27.826;2023-08-01T06:40:38;7.30;;;5.28;;
11348;SDS011;5729;43.570;27.826;2023-08-01T06:43:03;5.57;;;5.00;;
11348;SDS011;5729;43.570;27.826;2023-08-01T06:45:29;4.43;;;4.03;;
11348;SDS011;5729;43.570;27.826;2023-08-01T06:47:54;4.65;;;4.25;;
11348;SDS011;5729;43.570;27.826;2023-08-01T06:50:19;5.60;;;4.60;;
11348;SDS011;5729;43.570;27.826;2023-08-01T06:52:45;4.50;;;4.07;;
11348;SDS011;5729;43.570;27.826;2023-08-01T06:55:10;5.43;;;3.90;;
11348;SDS011;5729;43.570;27.826;2023-08-01T06:57:36;4.97;;;3.20;;
11348;SDS011;5729;43.570;27.826;2023-08-01T07:00:01;6.43;;;3.92;;
11348;SDS011;5729;43.570;27.826;2023-08-01T07:02:28;3.80;;;3.50;;
11348;SDS011;5729;43.570;27.826;2023-08-01T07:04:53;5.68;;;3.70;;
11348;SDS011;5729;43.570;27.826;2023-08-01T07:07:18;5.15;;;3.42;;
11348;SDS011;5729;43.570;27.826;2023-08-01T07:09:44;4.07;;;3.67;;
11348;SDS011;5729;43.570;27.826;2023-08-01T07:12:09;4.38;;;3.90;;
11348;SDS011;5729;43.570;27.826;2023-08-01T07:14:35;4.18;;;3.78;;
11348;SDS011;5729;43.570;27.826;2023-08-01T07:17:01;4.18;;;3.78;;
11348;SDS011;5729;43.570;27.826;2023-08-01T07:19:26;3.22;;;2.92;;
11348;SDS011;5729;43.570;27.826;2023-08-01T07:21:51;4.07;;;3.10;;
11348;SDS011;5729;43.570;27.826;2023-08-01T07:24:17;3.63;;;3.00;;
11348;SDS011;5729;43.570;27.826;2023-08-01T07:26:42;3.10;;;2.80;;
11348;SDS011;5729;43.570;27.826;2023-08-01T07:29:08;4.95;;;2.72;;
11348;SDS011;5729;43.570;27.826;2023-08-01T07:31:35;5.57;;;2.97;;
11348;SDS011;5729;43.570;27.826;2023-08-01T07:34:01;4.03;;;2.90;;
11348;SDS011;5729;43.570;27.826;2023-08-01T07:36:27;3.90;;;2.63;;
11348;SDS011;5729;43.570;27.826;2023-08-01T07:38:53;6.93;;;3.10;;
11348;SDS011;5729;43.570;27.826;2023-08-01T07:41:19;5.75;;;3.17;;
11348;SDS011;5729;43.570;27.826;2023-08-01T07:43:44;3.90;;;2.70;;
11348;SDS011;5729;43.570;27.826;2023-08-01T07:46:10;3.42;;;3.13;;
11348;SDS011;5729;43.570;27.826;2023-08-01T07:48:36;2.97;;;2.65;;
11348;SDS011;5729;43.570;27.826;2023-08-01T07:51:03;3.83;;;2.58;;
11348;SDS011;5729;43.570;27.826;2023-08-01T07:53:30;3.10;;;2.80;;
11348;SDS011;5729;43.570;27.826;2023-08-01T07:55:56;3.33;;;2.90;;
11348;SDS011;5729;43.570;27.826;2023-08-01T07:58:21;3.03;;;2.72;;
11348;SDS011;5729;43.570;27.826;2023-08-01T08:00:47;2.78;;;2.58;;
11348;SDS011;5729;43.570;27.826;2023-08-01T08:03:13;4.00;;;2.58;;
11348;SDS011;5729;43.570;27.826;2023-08-01T08:05:38;2.72;;;2.47;;
11348;SDS011;5729;43.570;27.826;2023-08-01T08:08:05;2.75;;;2.47;;
11348;SDS011;5729;43.570;27.826;2023-08-01T08:10:31;2.70;;;2.50;;
11348;SDS011;5729;43.570;27.826;2023-08-01T08:12:57;3.15;;;2.63;;
11348;SDS011;5729;43.570;27.826;2023-08-01T08:15:22;5.20;;;2.75;;
11348;SDS011;5729;43.570;27.826;2023-08-01T08:17:48;3.42;;;2.65;;
11348;SDS011;5729;43.570;27.826;2023-08-01T08:20:14;3.47;;;2.58;;
11348;SDS011;5729;43.570;27.826;2023-08-01T08:22:40;4.20;;;2.50;;
11348;SDS011;5729;43.570;27.826;2023-08-01T08:25:05;2.50;;;2.30;;
11348;SDS011;5729;43.570;27.826;2023-08-01T08:27:31;2.17;;;2.05;;
11348;SDS011;5729;43.570;27.826;2023-08-01T08:29:56;2.42;;;2.17;;
11348;SDS011;5729;43.570;27.826;2023-08-01T08:32:22;3.92;;;2.20;;
11348;SDS011;5729;43.570;27.826;2023-08-01T08:34:47;2.50;;;2.30;;
11348;SDS011;5729;43.570;27.826;2023-08-01T08:37:12;2.35;;;2.13;;
11348;SDS011;5729;43.570;27.826;2023-08-01T08:39:38;4.03;;;2.13;;
11348;SDS011;5729;43.570;27.826;2023-08-01T08:42:03;3.13;;;1.92;;
11348;SDS011;5729;43.570;27.826;2023-08-01T08:44:30;2.45;;;2.17;;
11348;SDS011;5729;43.570;27.826;2023-08-01T08:46:59;2.33;;;2.13;;
11348;SDS011;5729;43.570;27.826;2023-08-01T08:49:29;2.22;;;1.80;;
11348;SDS011;5729;43.570;27.826;2023-08-01T08:51:56;2.80;;;2.10;;
11348;SDS011;5729;43.570;27.826;2023-08-01T08:54:22;2.20;;;1.75;;
11348;SDS011;5729;43.570;27.826;2023-08-01T08:56:48;2.05;;;1.90;;
11348;SDS011;5729;43.570;27.826;2023-08-01T08:59:14;2.60;;;2.22;;
11348;SDS011;5729;43.570;27.826;2023-08-01T09:01:40;3.63;;;2.00;;
11348;SDS011;5729;43.570;27.826;2023-08-01T09:04:05;3.55;;;2.38;;
11348;SDS011;5729;43.570;27.826;2023-08-01T09:06:32;2.88;;;2.33;;
11348;SDS011;5729;43.570;27.826;2023-08-01T09:09:03;3.47;;;2.33;;
11348;SDS011;5729;43.570;27.826;2023-08-01T09:11:49;4.25;;;2.10;;
11348;SDS011;5729;43.570;27.826;2023-08-01T09:14:15;3.67;;;2.33;;
11348;SDS011;5729;43.570;27.826;2023-08-01T09:16:42;1.98;;;1.88;;
11348;SDS011;5729;43.570;27.826;2023-08-01T09:19:08;3.15;;;2.30;;
11348;SDS011;5729;43.570;27.826;2023-08-01T09:21:35;2.17;;;1.95;;
11348;SDS011;5729;43.570;27.826;2023-08-01T09:24:07;2.58;;;2.03;;
11348;SDS011;5729;43.570;27.826;2023-08-01T09:26:36;2.20;;;2.00;;
11348;SDS011;5729;43.570;27.826;2023-08-01T09:29:03;2.13;;;1.92;;
11348;SDS011;5729;43.570;27.826;2023-08-01T09:31:38;3.65;;;2.20;;
11348;SDS011;5729;43.570;27.826;2023-08-01T09:34:17;3.83;;;2.33;;
11348;SDS011;5729;43.570;27.826;2023-08-01T09:36:46;2.30;;;2.08;;
11348;SDS011;5729;43.570;27.826;2023-08-01T09:39:15;2.50;;;2.30;;
11348;SDS011;5729;43.570;27.826;2023-08-01T09:41:46;1.85;;;1.75;;
11348;SDS011;5729;43.570;27.826;2023-08-01T09:44:20;3.85;;;2.40;;
11348;SDS011;5729;43.570;27.826;2023-08-01T09:46:55;2.88;;;2.10;;
11348;SDS011;5729;43.570;27.826;2023-08-01T09:49:28;2.85;;;2.20;;
11348;SDS011;5729;43.570;27.826;2023-08-01T09:51:55;2.97;;;2.13;;
11348;SDS011;5729;43.570;27.826;2023-08-01T09:54:22;3.20;;;2.40;;
11348;SDS011;5729;43.570;27.826;2023-08-01T09:56:48;2.58;;;2.35;;
11348;SDS011;5729;43.570;27.826;2023-08-01T09:59:20;3.97;;;3.22;;
11348;SDS011;5729;43.570;27.826;2023-08-01T10:01:48;4.32;;;2.35;;
11348;SDS011;5729;43.570;27.826;2023-08-01T10:04:15;2.25;;;2.05;;
11348;SDS011;5729;43.570;27.826;2023-08-01T10:06:45;6.22;;;2.33;;
11348;SDS011;5729;43.570;27.826;2023-08-01T10:09:15;2.83;;;2.08;;
11348;SDS011;5729;43.570;27.826;2023-08-01T10:11:41;2.20;;;2.00;;
11348;SDS011;5729;43.570;27.826;2023-08-01T10:14:07;5.75;;;2.42;;
11348;SDS011;5729;43.570;27.826;2023-08-01T10:16:34;4.63;;;2.30;;
11348;SDS011;5729;43.570;27.826;2023-08-01T10:19:02;4.13;;;2.60;;
11348;SDS011;5729;43.570;27.826;2023-08-01T10:21:27;4.85;;;2.10;;
11348;SDS011;5729;43.570;27.826;2023-08-01T10:23:54;5.25;;;2.17;;
11348;SDS011;5729;43.570;27.826;2023-08-01T10:26:22;5.05;;;2.30;;
11348;SDS011;5729;43.570;27.826;2023-08-01T10:28:51;5.00;;;2.13;;
11348;SDS011;5729;43.570;27.826;2023-08-01T10:31:18;3.00;;;2.10;;
11348;SDS011;5729;43.570;27.826;2023-08-01T10:33:47;2.20;;;2.08;;
11348;SDS011;5729;43.570;27.826;2023-08-01T10:36:17;2.63;;;2.42;;
11348;SDS011;5729;43.570;27.826;2023-08-01T10:38:51;2.20;;;2.00;;
11348;SDS011;5729;43.570;27.826;2023-08-01T10:41:27;2.20;;;1.95;;
11348;SDS011;5729;43.570;27.826;2023-08-01T10:49:38;2.35;;;2.03;;
11348;SDS011;5729;43.570;27.826;2023-08-01T10:52:18;2.63;;;2.10;;
11348;SDS011;5729;43.570;27.826;2023-08-01T10:54:48;2.60;;;2.40;;
11348;SDS011;5729;43.570;27.826;2023-08-01T10:57:31;2.63;;;2.38;;
11348;SDS011;5729;43.570;27.826;2023-08-01T11:00:00;4.03;;;2.40;;
11348;SDS011;5729;43.570;27.826;2023-08-01T11:02:26;2.45;;;2.22;;
11348;SDS011;5729;43.570;27.826;2023-08-01T11:07:22;3.55;;;2.30;;
11348;SDS011;5729;43.570;27.826;2023-08-01T11:09:48;2.85;;;2.42;;
11348;SDS011;5729;43.570;27.826;2023-08-01T11:12:14;4.60;;;2.70;;
11348;SDS011;5729;43.570;27.826;2023-08-01T11:14:40;2.38;;;1.90;;
11348;SDS011;5729;43.570;27.826;2023-08-01T11:17:05;2.40;;;2.20;;
11348;SDS011;5729;43.570;27.826;2023-08-01T11:19:31;4.82;;;2.10;;
11348;SDS011;5729;43.570;27.826;2023-08-01T11:21:57;2.50;;;2.10;;
11348;SDS011;5729;43.570;27.826;2023-08-01T11:24:24;3.08;;;2.20;;
11348;SDS011;5729;43.570;27.826;2023-08-01T11:26:51;2.58;;;1.83;;
11348;SDS011;5729;43.570;27.826;2023-08-01T11:29:19;3.60;;;1.90;;
11348;SDS011;5729;43.570;27.826;2023-08-01T11:31:52;2.00;;;1.80;;
11348;SDS011;5729;43.570;27.826;2023-08-01T11:34:22;1.90;;;1.80;;
11348;SDS011;5729;43.570;27.826;2023-08-01T11:36:48;3.42;;;2.25;;
11348;SDS011;5729;43.570;27.826;2023-08-01T11:39:15;3.13;;;2.17;;
11348;SDS011;5729;43.570;27.826;2023-08-01T11:41:41;2.08;;;1.95;;
11348;SDS011;5729;43.570;27.826;2023-08-01T11:44:07;5.95;;;1.90;;
11348;SDS011;5729;43.570;27.826;2023-08-01T11:46:34;2.95;;;1.88;;
11348;SDS011;5729;43.570;27.826;2023-08-01T11:49:06;3.40;;;2.10;;
11348;SDS011;5729;43.570;27.826;2023-08-01T11:51:38;2.20;;;2.00;;
11348;SDS011;5729;43.570;27.826;2023-08-01T11:54:05;2.60;;;2.40;;
11348;SDS011;5729;43.570;27.826;2023-08-01T11:56:32;2.25;;;1.90;;
11348;SDS011;5729;43.570;27.826;2023-08-01T11:58:58;2.38;;;2.17;;
11348;SDS011;5729;43.570;27.826;2023-08-01T12:01:24;1.98;;;1.88;;
11348;SDS011;5729;43.570;27.826;2023-08-01T12:03:54;2.33;;;2.13;;
11348;SDS011;5729;43.570;27.826;2023-08-01T12:06:21;2.30;;;2.10;;
11348;SDS011;5729;43.570;27.826;2023-08-01T12:08:48;2.40;;;2.20;;
11348;SDS011;5729;43.570;27.826;2023-08-01T12:11:19;2.20;;;2.03;;
11348;SDS011;5729;43.570;27.826;2023-08-01T12:14:00;2.97;;;2.13;;
11348;SDS011;5729;43.570;27.826;2023-08-01T12:16:46;1.98;;;1.80;;
11348;SDS011;5729;43.570;27.826;2023-08-01T12:19:18;2.35;;;2.15;;
11348;SDS011;5729;43.570;27.826;2023-08-01T12:21:45;2.92;;;2.20;;
11348;SDS011;5729;43.570;27.826;2023-08-01T12:24:10;2.00;;;1.90;;
11348;SDS011;5729;43.570;27.826;2023-08-01T12:26:36;2.10;;;1.90;;
11348;SDS011;5729;43.570;27.826;2023-08-01T12:29:01;1.83;;;1.73;;
11348;SDS011;5729;43.570;27.826;2023-08-01T12:31:27;3.38;;;2.20;;
11348;SDS011;5729;43.570;27.826;2023-08-01T12:33:53;1.90;;;1.80;;
11348;SDS011;5729;43.570;27.826;2023-08-01T12:36:18;1.98;;;1.88;;
11348;SDS011;5729;43.570;27.826;2023-08-01T12:38:44;2.30;;;2.10;;
11348;SDS011;5729;43.570;27.826;2023-08-01T12:41:09;2.45;;;2.25;;
11348;SDS011;5729;43.570;27.826;2023-08-01T12:43:35;2.17;;;1.92;;
11348;SDS011;5729;43.570;27.826;2023-08-01T12:46:00;6.32;;;1.90;;
11348;SDS011;5729;43.570;27.826;2023-08-01T12:48:26;2.28;;;1.98;;
11348;SDS011;5729;43.570;27.826;2023-08-01T12:50:53;2.38;;;2.17;;
11348;SDS011;5729;43.570;27.826;2023-08-01T12:53:21;4.18;;;2.70;;
11348;SDS011;5729;43.570;27.826;2023-08-01T12:55:48;6.07;;;2.05;;
11348;SDS011;5729;43.570;27.826;2023-08-01T12:58:15;2.10;;;1.90;;
11348;SDS011;5729;43.570;27.826;2023-08-01T13:00:42;2.60;;;2.10;;
11348;SDS011;5729;43.570;27.826;2023-08-01T13:03:08;3.58;;;1.92;;
11348;SDS011;5729;43.570;27.826;2023-08-01T13:05:34;2.47;;;2.03;;
11348;SDS011;5729;43.570;27.826;2023-08-01T13:08:00;3.17;;;1.63;;
11348;SDS011;5729;43.570;27.826;2023-08-01T13:10:29;3.63;;;1.90;;
11348;SDS011;5729;43.570;27.826;2023-08-01T13:12:58;5.03;;;2.15;;
11348;SDS011;5729;43.570;27.826;2023-08-01T13:15:24;2.00;;;1.80;;
11348;SDS011;5729;43.570;27.826;2023-08-01T13:17:50;2.50;;;2.30;;
11348;SDS011;5729;43.570;27.826;2023-08-01T13:20:15;3.92;;;2.05;;
11348;SDS011;5729;43.570;27.826;2023-08-01T13:22:42;2.35;;;2.00;;
11348;SDS011;5729;43.570;27.826;2023-08-01T13:25:08;2.10;;;1.90;;
11348;SDS011;5729;43.570;27.826;2023-08-01T13:27:34;2.55;;;1.95;;
11348;SDS011;5729;43.570;27.826;2023-08-01T13:30:01;2.17;;;1.98;;
11348;SDS011;5729;43.570;27.826;2023-08-01T13:32:27;2.58;;;2.20;;
11348;SDS011;5729;43.570;27.826;2023-08-01T13:34:52;2.10;;;1.83;;
11348;SDS011;5729;43.570;27.826;2023-08-01T13:37:18;2.40;;;2.20;;
11348;SDS011;5729;43.570;27.826;2023-08-01T13:39:43;2.53;;;2.22;;
11348;SDS011;5729;43.570;27.826;2023-08-01T13:42:10;2.47;;;1.88;;
11348;SDS011;5729;43.570;27.826;2023-08-01T13:44:39;1.70;;;1.60;;
11348;SDS011;5729;43.570;27.826;2023-08-01T13:47:05;2.05;;;1.95;;
11348;SDS011;5729;43.570;27.826;2023-08-01T13:49:31;3.78;;;2.00;;
11348;SDS011;5729;43.570;27.826;2023-08-01T13:51:57;2.25;;;1.92;;
11348;SDS011;5729;43.570;27.826;2023-08-01T13:54:25;5.03;;;1.98;;
11348;SDS011;5729;43.570;27.826;2023-08-01T13:56:50;2.35;;;1.80;;
11348;SDS011;5729;43.570;27.826;2023-08-01T13:59:16;1.90;;;1.80;;
11348;SDS011;5729;43.570;27.826;2023-08-01T14:01:42;2.30;;;2.10;;
11348;SDS011;5729;43.570;27.826;2023-08-01T14:04:07;1.95;;;1.83;;
11348;SDS011;5729;43.570;27.826;2023-08-01T14:06:33;2.13;;;1.80;;
11348;SDS011;5729;43.570;27.826;2023-08-01T14:08:58;3.67;;;2.30;;
11348;SDS011;5729;43.570;27.826;2023-08-01T14:11:24;3.47;;;1.83;;
11348;SDS011;5729;43.570;27.826;2023-08-01T14:13:49;3.53;;;2.20;;
11348;SDS011;5729;43.570;27.826;2023-08-01T14:16:15;1.90;;;1.80;;
11348;SDS011;5729;43.570;27.826;2023-08-01T14:18:41;1.98;;;1.88;;
11348;SDS011;5729;43.570;27.826;2023-08-01T14:21:07;2.40;;;2.10;;
11348;SDS011;5729;43.570;27.826;2023-08-01T14:23:33;2.65;;;2.17;;
11348;SDS011;5729;43.570;27.826;2023-08-01T14:25:58;2.03;;;1.80;;
11348;SDS011;5729;43.570;27.826;2023-08-01T14:28:24;2.20;;;1.98;;
11348;SDS011;5729;43.570;27.826;2023-08-01T14:30:50;2.13;;;2.00;;
11348;SDS011;5729;43.570;27.826;2023-08-01T14:33:15;4.20;;;2.10;;
11348;SDS011;5729;43.570;27.826;2023-08-01T14:35:40;2.03;;;1.90;;
11348;SDS011;5729;43.570;27.826;2023-08-01T14:38:07;2.78;;;1.90;;
11348;SDS011;5729;43.570;27.826;2023-08-01T14:40:33;1.95;;;1.85;;
11348;SDS011;5729;43.570;27.826;2023-08-01T14:43:00;2.30;;;2.10;;
11348;SDS011;5729;43.570;27.826;2023-08-01T14:45:26;3.42;;;2.50;;
11348;SDS011;5729;43.570;27.826;2023-08-01T14:47:52;2.58;;;1.90;;
11348;SDS011;5729;43.570;27.826;2023-08-01T14:50:17;3.53;;;2.17;;